sensor_id;sensor_type;location;lat;lon;timestamp;temperature;humidity
50758;DHT22;36732;47.980;11.652;2022-09-09T00:02:19;20.80;54.00
50758;DHT22;36732;47.980;11.652;2022-09-09T00:07:55;20.80;54.20
50758;DHT22;36732;47.980;11.652;2022-09-09T00:10:37;20.80;54.00
50758;DHT22;36732;47.980;11.652;2022-09-09T00:13:38;20.70;54.20
50758;DHT22;36732;47.980;11.652;2022-09-09T00:16:22;20.70;54.20
50758;DHT22;36732;47.980;11.652;2022-09-09T00:19:18;20.70;54.30
50758;DHT22;36732;47.980;11.652;2022-09-09T00:21:55;20.60;55.10
50758;DHT22;36732;47.980;11.652;2022-09-09T00:24:32;20.60;54.60
50758;DHT22;36732;47.980;11.652;2022-09-09T00:27:53;20.60;54.60
50758;DHT22;36732;47.980;11.652;2022-09-09T00:30:25;20.60;54.60
50758;DHT22;36732;47.980;11.652;2022-09-09T00:33:01;20.60;54.90
50758;DHT22;36732;47.980;11.652;2022-09-09T00:35:44;20.60;54.80
50758;DHT22;36732;47.980;11.652;2022-09-09T00:38:55;20.60;54.80
50758;DHT22;36732;47.980;11.652;2022-09-09T00:50:49;20.60;55.40
50758;DHT22;36732;47.980;11.652;2022-09-09T00:56:44;20.60;55.30
50758;DHT22;36732;47.980;11.652;2022-09-09T00:59:41;20.60;55.70
50758;DHT22;36732;47.980;11.652;2022-09-09T01:10:53;20.60;55.70
50758;DHT22;36732;47.980;11.652;2022-09-09T01:13:31;20.60;56.00
50758;DHT22;36732;47.980;11.652;2022-09-09T01:16:03;20.60;56.10
50758;DHT22;36732;47.980;11.652;2022-09-09T01:18:34;20.60;56.30
50758;DHT22;36732;47.980;11.652;2022-09-09T01:26:59;20.60;56.40
50758;DHT22;36732;47.980;11.652;2022-09-09T01:29:26;20.60;56.30
50758;DHT22;36732;47.980;11.652;2022-09-09T01:31:58;20.60;56.30
50758;DHT22;36732;47.980;11.652;2022-09-09T01:34:33;20.60;56.50
50758;DHT22;36732;47.980;11.652;2022-09-09T01:37:07;20.60;56.50
50758;DHT22;36732;47.980;11.652;2022-09-09T01:39:36;20.60;56.70
50758;DHT22;36732;47.980;11.652;2022-09-09T01:42:05;20.60;56.60
50758;DHT22;36732;47.980;11.652;2022-09-09T01:44:32;20.60;56.70
50758;DHT22;36732;47.980;11.652;2022-09-09T01:46:58;20.60;56.70
50758;DHT22;36732;47.980;11.652;2022-09-09T01:49:24;20.60;56.70
50758;DHT22;36732;47.980;11.652;2022-09-09T01:51:55;20.60;56.70
50758;DHT22;36732;47.980;11.652;2022-09-09T01:54:22;20.60;56.80
50758;DHT22;36732;47.980;11.652;2022-09-09T02:00:06;20.60;57.00
50758;DHT22;36732;47.980;11.652;2022-09-09T02:02:59;20.70;56.70
50758;DHT22;36732;47.980;11.652;2022-09-09T02:06:08;20.60;57.00
50758;DHT22;36732;47.980;11.652;2022-09-09T02:08:50;20.60;57.10
50758;DHT22;36732;47.980;11.652;2022-09-09T02:11:20;20.70;56.90
50758;DHT22;36732;47.980;11.652;2022-09-09T02:13:49;20.70;56.80
50758;DHT22;36732;47.980;11.652;2022-09-09T02:16:40;20.70;57.00
50758;DHT22;36732;47.980;11.652;2022-09-09T02:21:44;20.70;57.00
50758;DHT22;36732;47.980;11.652;2022-09-09T02:24:14;20.70;57.00
50758;DHT22;36732;47.980;11.652;2022-09-09T02:26:42;20.70;57.10
50758;DHT22;36732;47.980;11.652;2022-09-09T02:29:16;20.70;56.90
50758;DHT22;36732;47.980;11.652;2022-09-09T02:31:49;20.70;57.00
50758;DHT22;36732;47.980;11.652;2022-09-09T02:34:18;20.70;56.90
50758;DHT22;36732;47.980;11.652;2022-09-09T02:36:46;20.70;57.60
50758;DHT22;36732;47.980;11.652;2022-09-09T02:39:12;20.70;56.90
50758;DHT22;36732;47.980;11.652;2022-09-09T02:41:40;20.70;56.90
50758;DHT22;36732;47.980;11.652;2022-09-09T02:44:11;20.70;57.00
50758;DHT22;36732;47.980;11.652;2022-09-09T02:49:56;20.70;57.10
50758;DHT22;36732;47.980;11.652;2022-09-09T02:58:16;20.70;57.00
50758;DHT22;36732;47.980;11.652;2022-09-09T03:00:45;20.70;56.90
50758;DHT22;36732;47.980;11.652;2022-09-09T03:03:13;20.70;57.00
50758;DHT22;36732;47.980;11.652;2022-09-09T03:05:38;20.70;56.90
50758;DHT22;36732;47.980;11.652;2022-09-09T03:08:05;20.70;57.00
50758;DHT22;36732;47.980;11.652;2022-09-09T03:10:31;20.70;57.00
50758;DHT22;36732;47.980;11.652;2022-09-09T03:12:58;20.70;57.00
50758;DHT22;36732;47.980;11.652;2022-09-09T03:15:24;20.70;57.10
50758;DHT22;36732;47.980;11.652;2022-09-09T03:17:54;20.70;57.10
50758;DHT22;36732;47.980;11.652;2022-09-09T03:20:20;20.70;57.10
50758;DHT22;36732;47.980;11.652;2022-09-09T03:22:46;20.70;57.20
50758;DHT22;36732;47.980;11.652;2022-09-09T03:25:12;20.70;57.20
50758;DHT22;36732;47.980;11.652;2022-09-09T03:27:37;20.70;57.20
50758;DHT22;36732;47.980;11.652;2022-09-09T03:30:04;20.70;57.20
50758;DHT22;36732;47.980;11.652;2022-09-09T03:32:30;20.70;57.20
50758;DHT22;36732;47.980;11.652;2022-09-09T03:34:56;20.70;57.20
50758;DHT22;36732;47.980;11.652;2022-09-09T03:37:22;20.70;57.20
50758;DHT22;36732;47.980;11.652;2022-09-09T03:39:48;20.70;57.20
50758;DHT22;36732;47.980;11.652;2022-09-09T03:42:14;20.60;57.10
50758;DHT22;36732;47.980;11.652;2022-09-09T03:44:44;20.60;57.20
50758;DHT22;36732;47.980;11.652;2022-09-09T03:47:20;20.60;57.20
50758;DHT22;36732;47.980;11.652;2022-09-09T03:49:47;20.60;57.30
50758;DHT22;36732;47.980;11.652;2022-09-09T03:52:14;20.60;57.20
50758;DHT22;36732;47.980;11.652;2022-09-09T03:54:41;20.60;57.30
50758;DHT22;36732;47.980;11.652;2022-09-09T03:57:08;20.50;57.40
50758;DHT22;36732;47.980;11.652;2022-09-09T03:59:35;20.50;57.40
50758;DHT22;36732;47.980;11.652;2022-09-09T04:02:02;20.50;57.40
50758;DHT22;36732;47.980;11.652;2022-09-09T04:04:28;20.50;57.50
50758;DHT22;36732;47.980;11.652;2022-09-09T04:06:54;20.50;57.50
50758;DHT22;36732;47.980;11.652;2022-09-09T04:09:20;20.40;57.50
50758;DHT22;36732;47.980;11.652;2022-09-09T04:11:45;20.50;57.60
50758;DHT22;36732;47.980;11.652;2022-09-09T04:14:12;20.50;57.60
50758;DHT22;36732;47.980;11.652;2022-09-09T04:16:38;20.50;57.60
50758;DHT22;36732;47.980;11.652;2022-09-09T04:19:05;20.50;57.80
50758;DHT22;36732;47.980;11.652;2022-09-09T04:21:32;20.50;57.80
50758;DHT22;36732;47.980;11.652;2022-09-09T04:23:57;20.40;57.70
50758;DHT22;36732;47.980;11.652;2022-09-09T04:26:23;20.40;57.70
50758;DHT22;36732;47.980;11.652;2022-09-09T04:28:49;20.40;57.70
50758;DHT22;36732;47.980;11.652;2022-09-09T04:31:20;20.40;57.80
50758;DHT22;36732;47.980;11.652;2022-09-09T04:33:49;20.40;57.80
50758;DHT22;36732;47.980;11.652;2022-09-09T04:36:15;20.40;57.70
50758;DHT22;36732;47.980;11.652;2022-09-09T04:38:41;20.40;57.70
50758;DHT22;36732;47.980;11.652;2022-09-09T04:41:07;20.40;57.70
50758;DHT22;36732;47.980;11.652;2022-09-09T04:43:35;20.40;57.80
50758;DHT22;36732;47.980;11.652;2022-09-09T04:46:01;20.40;57.80
50758;DHT22;36732;47.980;11.652;2022-09-09T04:48:26;20.40;57.80
50758;DHT22;36732;47.980;11.652;2022-09-09T04:51:00;20.40;57.80
50758;DHT22;36732;47.980;11.652;2022-09-09T04:53:29;20.40;58.00
50758;DHT22;36732;47.980;11.652;2022-09-09T04:56:11;20.40;57.80
50758;DHT22;36732;47.980;11.652;2022-09-09T04:58:39;20.40;57.90
50758;DHT22;36732;47.980;11.652;2022-09-09T05:03:41;20.40;57.90
50758;DHT22;36732;47.980;11.652;2022-09-09T05:06:27;20.40;57.90
50758;DHT22;36732;47.980;11.652;2022-09-09T05:08:52;20.40;58.00
50758;DHT22;36732;47.980;11.652;2022-09-09T05:11:22;20.40;57.90
50758;DHT22;36732;47.980;11.652;2022-09-09T05:13:50;20.40;57.90
50758;DHT22;36732;47.980;11.652;2022-09-09T05:16:16;20.40;57.90
50758;DHT22;36732;47.980;11.652;2022-09-09T05:18:43;20.40;58.00
50758;DHT22;36732;47.980;11.652;2022-09-09T05:21:10;20.30;58.00
50758;DHT22;36732;47.980;11.652;2022-09-09T05:23:36;20.40;58.10
50758;DHT22;36732;47.980;11.652;2022-09-09T05:26:02;20.30;58.20
50758;DHT22;36732;47.980;11.652;2022-09-09T05:28:29;20.30;58.30
50758;DHT22;36732;47.980;11.652;2022-09-09T05:31:00;20.30;58.50
50758;DHT22;36732;47.980;11.652;2022-09-09T05:33:30;20.30;58.60
50758;DHT22;36732;47.980;11.652;2022-09-09T05:36:02;20.30;58.50
50758;DHT22;36732;47.980;11.652;2022-09-09T05:38:32;20.30;58.90
50758;DHT22;36732;47.980;11.652;2022-09-09T05:40:58;20.30;58.70
50758;DHT22;36732;47.980;11.652;2022-09-09T05:43:25;20.30;58.80
50758;DHT22;36732;47.980;11.652;2022-09-09T05:46:10;20.30;58.80
50758;DHT22;36732;47.980;11.652;2022-09-09T05:48:42;20.20;58.90
50758;DHT22;36732;47.980;11.652;2022-09-09T05:51:10;20.30;58.90
50758;DHT22;36732;47.980;11.652;2022-09-09T05:53:38;20.30;58.90
50758;DHT22;36732;47.980;11.652;2022-09-09T05:56:09;20.30;58.90
50758;DHT22;36732;47.980;11.652;2022-09-09T05:58:37;20.30;59.10
50758;DHT22;36732;47.980;11.652;2022-09-09T06:01:27;20.30;59.00
50758;DHT22;36732;47.980;11.652;2022-09-09T06:03:55;20.20;59.40
50758;DHT22;36732;47.980;11.652;2022-09-09T06:06:26;20.30;59.40
50758;DHT22;36732;47.980;11.652;2022-09-09T06:08:55;20.30;59.60
50758;DHT22;36732;47.980;11.652;2022-09-09T06:11:30;20.30;59.50
50758;DHT22;36732;47.980;11.652;2022-09-09T06:13:57;20.30;59.60
50758;DHT22;36732;47.980;11.652;2022-09-09T06:16:24;20.30;59.20
50758;DHT22;36732;47.980;11.652;2022-09-09T06:18:53;20.30;58.90
50758;DHT22;36732;47.980;11.652;2022-09-09T06:21:27;20.30;58.90
50758;DHT22;36732;47.980;11.652;2022-09-09T06:23:55;20.30;58.90
50758;DHT22;36732;47.980;11.652;2022-09-09T06:26:26;20.30;58.90
50758;DHT22;36732;47.980;11.652;2022-09-09T06:28:56;20.30;58.70
50758;DHT22;36732;47.980;11.652;2022-09-09T06:31:29;20.30;58.80
50758;DHT22;36732;47.980;11.652;2022-09-09T06:33:57;20.30;58.90
50758;DHT22;36732;47.980;11.652;2022-09-09T06:36:37;20.30;59.00
50758;DHT22;36732;47.980;11.652;2022-09-09T06:39:05;20.30;59.40
50758;DHT22;36732;47.980;11.652;2022-09-09T06:41:32;20.40;59.30
50758;DHT22;36732;47.980;11.652;2022-09-09T06:43:59;20.40;59.40
50758;DHT22;36732;47.980;11.652;2022-09-09T06:46:29;20.40;59.40
50758;DHT22;36732;47.980;11.652;2022-09-09T06:48:57;20.40;59.50
50758;DHT22;36732;47.980;11.652;2022-09-09T06:51:27;20.40;59.30
50758;DHT22;36732;47.980;11.652;2022-09-09T06:53:56;20.40;59.70
50758;DHT22;36732;47.980;11.652;2022-09-09T06:56:31;20.40;59.80
50758;DHT22;36732;47.980;11.652;2022-09-09T06:59:00;20.40;60.00
50758;DHT22;36732;47.980;11.652;2022-09-09T07:01:31;20.40;59.90
50758;DHT22;36732;47.980;11.652;2022-09-09T07:03:59;20.40;59.90
50758;DHT22;36732;47.980;11.652;2022-09-09T07:06:27;20.40;59.90
50758;DHT22;36732;47.980;11.652;2022-09-09T07:08:58;20.40;59.90
50758;DHT22;36732;47.980;11.652;2022-09-09T07:11:28;20.40;59.90
50758;DHT22;36732;47.980;11.652;2022-09-09T07:13:56;20.40;59.80
50758;DHT22;36732;47.980;11.652;2022-09-09T07:16:23;20.40;59.80
50758;DHT22;36732;47.980;11.652;2022-09-09T07:18:53;20.40;59.90
50758;DHT22;36732;47.980;11.652;2022-09-09T07:21:24;20.50;60.10
50758;DHT22;36732;47.980;11.652;2022-09-09T07:23:52;20.40;60.00
50758;DHT22;36732;47.980;11.652;2022-09-09T07:26:20;20.40;60.00
50758;DHT22;36732;47.980;11.652;2022-09-09T07:28:48;20.50;60.10
50758;DHT22;36732;47.980;11.652;2022-09-09T07:31:19;20.50;60.20
50758;DHT22;36732;47.980;11.652;2022-09-09T07:33:53;20.40;60.20
50758;DHT22;36732;47.980;11.652;2022-09-09T07:36:24;20.40;60.10
50758;DHT22;36732;47.980;11.652;2022-09-09T07:39:03;20.50;60.40
50758;DHT22;36732;47.980;11.652;2022-09-09T07:41:42;20.40;60.30
50758;DHT22;36732;47.980;11.652;2022-09-09T07:44:11;20.40;60.30
50758;DHT22;36732;47.980;11.652;2022-09-09T07:46:39;20.40;60.00
50758;DHT22;36732;47.980;11.652;2022-09-09T07:49:06;20.40;59.90
50758;DHT22;36732;47.980;11.652;2022-09-09T07:51:37;20.40;60.00
50758;DHT22;36732;47.980;11.652;2022-09-09T07:54:07;20.40;60.10
50758;DHT22;36732;47.980;11.652;2022-09-09T07:56:34;20.40;59.90
50758;DHT22;36732;47.980;11.652;2022-09-09T07:59:01;20.40;59.80
50758;DHT22;36732;47.980;11.652;2022-09-09T08:01:38;20.40;59.80
50758;DHT22;36732;47.980;11.652;2022-09-09T08:04:07;20.40;59.80
50758;DHT22;36732;47.980;11.652;2022-09-09T08:06:41;20.40;59.80
50758;DHT22;36732;47.980;11.652;2022-09-09T08:09:15;20.40;59.90
50758;DHT22;36732;47.980;11.652;2022-09-09T08:11:41;20.40;59.80
50758;DHT22;36732;47.980;11.652;2022-09-09T08:14:08;20.40;59.80
50758;DHT22;36732;47.980;11.652;2022-09-09T08:16:38;20.40;60.10
50758;DHT22;36732;47.980;11.652;2022-09-09T08:19:06;20.40;60.20
50758;DHT22;36732;47.980;11.652;2022-09-09T08:21:34;20.40;60.20
50758;DHT22;36732;47.980;11.652;2022-09-09T08:24:03;20.40;60.30
50758;DHT22;36732;47.980;11.652;2022-09-09T08:26:38;20.40;60.40
50758;DHT22;36732;47.980;11.652;2022-09-09T08:29:07;20.40;60.40
50758;DHT22;36732;47.980;11.652;2022-09-09T08:31:44;20.40;60.60
50758;DHT22;36732;47.980;11.652;2022-09-09T08:34:13;20.40;60.70
50758;DHT22;36732;47.980;11.652;2022-09-09T08:36:42;20.40;60.60
50758;DHT22;36732;47.980;11.652;2022-09-09T08:39:11;20.40;60.60
50758;DHT22;36732;47.980;11.652;2022-09-09T08:50:30;20.40;60.80
50758;DHT22;36732;47.980;11.652;2022-09-09T08:58:32;20.40;60.80
50758;DHT22;36732;47.980;11.652;2022-09-09T09:09:44;20.40;61.50
50758;DHT22;36732;47.980;11.652;2022-09-09T09:12:25;20.50;61.30
50758;DHT22;36732;47.980;11.652;2022-09-09T09:14:54;20.50;61.20
50758;DHT22;36732;47.980;11.652;2022-09-09T09:17:25;20.50;61.30
50758;DHT22;36732;47.980;11.652;2022-09-09T09:19:53;20.50;61.10
50758;DHT22;36732;47.980;11.652;2022-09-09T09:22:39;20.50;61.00
50758;DHT22;36732;47.980;11.652;2022-09-09T09:25:32;20.50;61.20
50758;DHT22;36732;47.980;11.652;2022-09-09T09:28:17;20.50;61.30
50758;DHT22;36732;47.980;11.652;2022-09-09T09:30:54;20.50;61.20
50758;DHT22;36732;47.980;11.652;2022-09-09T09:33:46;20.50;61.20
50758;DHT22;36732;47.980;11.652;2022-09-09T09:36:16;20.50;61.20
50758;DHT22;36732;47.980;11.652;2022-09-09T09:38:59;20.60;60.90
50758;DHT22;36732;47.980;11.652;2022-09-09T09:41:36;20.60;60.90
50758;DHT22;36732;47.980;11.652;2022-09-09T09:44:05;20.60;60.70
50758;DHT22;36732;47.980;11.652;2022-09-09T09:46:32;20.60;60.70
50758;DHT22;36732;47.980;11.652;2022-09-09T09:49:03;20.60;60.70
50758;DHT22;36732;47.980;11.652;2022-09-09T09:51:32;20.60;60.90
50758;DHT22;36732;47.980;11.652;2022-09-09T09:56:40;20.60;61.30
50758;DHT22;36732;47.980;11.652;2022-09-09T09:59:20;20.70;61.10
50758;DHT22;36732;47.980;11.652;2022-09-09T10:01:47;20.60;61.20
50758;DHT22;36732;47.980;11.652;2022-09-09T10:04:21;20.70;61.10
50758;DHT22;36732;47.980;11.652;2022-09-09T10:06:51;20.70;61.00
50758;DHT22;36732;47.980;11.652;2022-09-09T10:09:24;20.70;60.90
50758;DHT22;36732;47.980;11.652;2022-09-09T10:14:50;20.70;60.90
50758;DHT22;36732;47.980;11.652;2022-09-09T10:31:57;20.80;60.70
50758;DHT22;36732;47.980;11.652;2022-09-09T10:43:32;20.90;60.40
50758;DHT22;36732;47.980;11.652;2022-09-09T10:55:35;20.90;60.10
50758;DHT22;36732;47.980;11.652;2022-09-09T10:58:05;20.90;60.20
50758;DHT22;36732;47.980;11.652;2022-09-09T11:00:43;20.90;60.20
50758;DHT22;36732;47.980;11.652;2022-09-09T11:03:25;20.90;60.20
50758;DHT22;36732;47.980;11.652;2022-09-09T11:06:05;20.90;60.20
50758;DHT22;36732;47.980;11.652;2022-09-09T11:08:35;20.90;60.20
50758;DHT22;36732;47.980;11.652;2022-09-09T11:11:09;20.90;60.40
50758;DHT22;36732;47.980;11.652;2022-09-09T11:16:47;20.90;60.10
50758;DHT22;36732;47.980;11.652;2022-09-09T11:19:35;20.90;59.90
50758;DHT22;36732;47.980;11.652;2022-09-09T11:24:54;20.90;60.10
50758;DHT22;36732;47.980;11.652;2022-09-09T11:27:35;21.00;60.00
50758;DHT22;36732;47.980;11.652;2022-09-09T11:30:17;20.90;60.00
50758;DHT22;36732;47.980;11.652;2022-09-09T11:35:45;21.00;59.70
50758;DHT22;36732;47.980;11.652;2022-09-09T11:38:52;21.00;59.60
50758;DHT22;36732;47.980;11.652;2022-09-09T11:41:33;21.00;59.70
50758;DHT22;36732;47.980;11.652;2022-09-09T11:44:15;21.00;59.40
50758;DHT22;36732;47.980;11.652;2022-09-09T11:46:46;21.10;59.60
50758;DHT22;36732;47.980;11.652;2022-09-09T11:49:41;21.10;60.20
50758;DHT22;36732;47.980;11.652;2022-09-09T11:52:20;21.10;59.70
50758;DHT22;36732;47.980;11.652;2022-09-09T11:54:48;21.10;59.60
50758;DHT22;36732;47.980;11.652;2022-09-09T11:57:35;21.10;59.60
50758;DHT22;36732;47.980;11.652;2022-09-09T12:00:03;21.10;59.60
50758;DHT22;36732;47.980;11.652;2022-09-09T12:02:29;21.20;59.40
50758;DHT22;36732;47.980;11.652;2022-09-09T12:05:07;21.20;59.40
50758;DHT22;36732;47.980;11.652;2022-09-09T12:07:49;21.20;59.40
50758;DHT22;36732;47.980;11.652;2022-09-09T12:10:34;21.20;59.20
50758;DHT22;36732;47.980;11.652;2022-09-09T12:13:15;21.20;59.20
50758;DHT22;36732;47.980;11.652;2022-09-09T12:15:57;21.30;58.80
50758;DHT22;36732;47.980;11.652;2022-09-09T12:18:37;21.30;58.60
50758;DHT22;36732;47.980;11.652;2022-09-09T12:21:33;21.30;58.70
50758;DHT22;36732;47.980;11.652;2022-09-09T12:24:19;21.30;58.60
50758;DHT22;36732;47.980;11.652;2022-09-09T12:27:36;21.30;58.80
50758;DHT22;36732;47.980;11.652;2022-09-09T12:30:10;21.30;58.60
50758;DHT22;36732;47.980;11.652;2022-09-09T12:32:38;21.30;58.60
50758;DHT22;36732;47.980;11.652;2022-09-09T12:35:08;21.40;58.70
50758;DHT22;36732;47.980;11.652;2022-09-09T12:37:40;21.40;58.60
50758;DHT22;36732;47.980;11.652;2022-09-09T12:40:19;21.40;58.40
50758;DHT22;36732;47.980;11.652;2022-09-09T12:42:47;21.40;58.20
50758;DHT22;36732;47.980;11.652;2022-09-09T12:45:19;21.40;58.30
50758;DHT22;36732;47.980;11.652;2022-09-09T12:48:19;21.40;58.20
50758;DHT22;36732;47.980;11.652;2022-09-09T12:50:50;21.40;58.00
50758;DHT22;36732;47.980;11.652;2022-09-09T12:53:30;21.50;58.10
50758;DHT22;36732;47.980;11.652;2022-09-09T12:56:08;21.50;58.00
50758;DHT22;36732;47.980;11.652;2022-09-09T12:58:47;21.50;57.80
50758;DHT22;36732;47.980;11.652;2022-09-09T13:01:32;21.50;57.90
50758;DHT22;36732;47.980;11.652;2022-09-09T13:03:59;21.50;57.50
50758;DHT22;36732;47.980;11.652;2022-09-09T13:06:27;21.60;57.50
50758;DHT22;36732;47.980;11.652;2022-09-09T13:08:56;21.60;57.10
50758;DHT22;36732;47.980;11.652;2022-09-09T13:11:30;21.60;57.30
50758;DHT22;36732;47.980;11.652;2022-09-09T13:14:33;21.60;57.10
50758;DHT22;36732;47.980;11.652;2022-09-09T13:17:04;21.60;57.00
50758;DHT22;36732;47.980;11.652;2022-09-09T13:19:37;21.60;57.10
50758;DHT22;36732;47.980;11.652;2022-09-09T13:22:16;21.60;57.00
50758;DHT22;36732;47.980;11.652;2022-09-09T13:24:46;21.60;56.90
50758;DHT22;36732;47.980;11.652;2022-09-09T13:29:53;21.60;57.10
50758;DHT22;36732;47.980;11.652;2022-09-09T13:32:20;21.60;57.30
50758;DHT22;36732;47.980;11.652;2022-09-09T13:34:58;21.60;57.30
50758;DHT22;36732;47.980;11.652;2022-09-09T13:37:31;21.60;57.40
50758;DHT22;36732;47.980;11.652;2022-09-09T13:39:59;21.60;57.50
50758;DHT22;36732;47.980;11.652;2022-09-09T13:42:27;21.60;57.50
50758;DHT22;36732;47.980;11.652;2022-09-09T13:44:56;21.60;57.70
50758;DHT22;36732;47.980;11.652;2022-09-09T13:47:34;21.60;57.70
50758;DHT22;36732;47.980;11.652;2022-09-09T13:50:20;21.60;57.60
50758;DHT22;36732;47.980;11.652;2022-09-09T13:52:56;21.60;57.60
50758;DHT22;36732;47.980;11.652;2022-09-09T13:55:28;21.60;57.60
50758;DHT22;36732;47.980;11.652;2022-09-09T13:58:02;21.60;57.50
50758;DHT22;36732;47.980;11.652;2022-09-09T14:00:33;21.60;57.30
50758;DHT22;36732;47.980;11.652;2022-09-09T14:02:59;21.60;57.40
50758;DHT22;36732;47.980;11.652;2022-09-09T14:05:29;21.60;57.30
50758;DHT22;36732;47.980;11.652;2022-09-09T14:07:56;21.60;57.30
50758;DHT22;36732;47.980;11.652;2022-09-09T14:10:22;21.60;57.30
50758;DHT22;36732;47.980;11.652;2022-09-09T14:12:48;21.60;57.20
50758;DHT22;36732;47.980;11.652;2022-09-09T14:15:14;21.60;57.10
50758;DHT22;36732;47.980;11.652;2022-09-09T14:17:40;21.60;57.10
50758;DHT22;36732;47.980;11.652;2022-09-09T14:20:07;21.60;57.20
50758;DHT22;36732;47.980;11.652;2022-09-09T14:22:33;21.60;57.20
50758;DHT22;36732;47.980;11.652;2022-09-09T14:25:00;21.50;57.30
50758;DHT22;36732;47.980;11.652;2022-09-09T14:27:26;21.50;58.10
50758;DHT22;36732;47.980;11.652;2022-09-09T14:29:52;21.60;57.80
50758;DHT22;36732;47.980;11.652;2022-09-09T14:32:18;21.50;58.00
50758;DHT22;36732;47.980;11.652;2022-09-09T14:34:44;21.50;57.80
50758;DHT22;36732;47.980;11.652;2022-09-09T14:37:10;21.60;57.80
50758;DHT22;36732;47.980;11.652;2022-09-09T14:39:36;21.50;57.60
50758;DHT22;36732;47.980;11.652;2022-09-09T14:42:01;21.60;57.70
50758;DHT22;36732;47.980;11.652;2022-09-09T14:44:28;21.50;57.70
50758;DHT22;36732;47.980;11.652;2022-09-09T14:46:53;21.60;57.70
50758;DHT22;36732;47.980;11.652;2022-09-09T14:49:20;21.60;57.60
50758;DHT22;36732;47.980;11.652;2022-09-09T14:51:45;21.60;57.40
50758;DHT22;36732;47.980;11.652;2022-09-09T14:54:11;21.60;57.20
50758;DHT22;36732;47.980;11.652;2022-09-09T14:56:37;21.60;57.00
50758;DHT22;36732;47.980;11.652;2022-09-09T14:59:04;21.60;57.00
50758;DHT22;36732;47.980;11.652;2022-09-09T15:01:30;21.60;57.00
50758;DHT22;36732;47.980;11.652;2022-09-09T15:03:59;21.60;57.10
50758;DHT22;36732;47.980;11.652;2022-09-09T15:06:28;21.60;57.10
50758;DHT22;36732;47.980;11.652;2022-09-09T15:08:56;21.60;57.10
50758;DHT22;36732;47.980;11.652;2022-09-09T15:11:27;21.60;57.00
50758;DHT22;36732;47.980;11.652;2022-09-09T15:13:54;21.70;56.90
50758;DHT22;36732;47.980;11.652;2022-09-09T15:16:21;21.60;56.70
50758;DHT22;36732;47.980;11.652;2022-09-09T15:18:55;21.70;57.00
50758;DHT22;36732;47.980;11.652;2022-09-09T15:21:25;21.60;56.80
50758;DHT22;36732;47.980;11.652;2022-09-09T15:23:52;21.70;56.90
50758;DHT22;36732;47.980;11.652;2022-09-09T15:26:18;21.70;56.60
50758;DHT22;36732;47.980;11.652;2022-09-09T15:28:46;21.70;56.50
50758;DHT22;36732;47.980;11.652;2022-09-09T15:31:18;21.70;56.40
50758;DHT22;36732;47.980;11.652;2022-09-09T15:33:56;21.60;56.00
50758;DHT22;36732;47.980;11.652;2022-09-09T15:36:40;21.60;56.20
50758;DHT22;36732;47.980;11.652;2022-09-09T15:39:09;21.60;55.90
50758;DHT22;36732;47.980;11.652;2022-09-09T15:41:41;21.60;55.70
50758;DHT22;36732;47.980;11.652;2022-09-09T15:44:08;21.60;55.90
50758;DHT22;36732;47.980;11.652;2022-09-09T15:46:41;21.60;56.00
50758;DHT22;36732;47.980;11.652;2022-09-09T15:49:19;21.60;56.10
50758;DHT22;36732;47.980;11.652;2022-09-09T15:51:53;21.60;56.00
50758;DHT22;36732;47.980;11.652;2022-09-09T15:54:21;21.60;56.00
50758;DHT22;36732;47.980;11.652;2022-09-09T15:56:54;21.60;55.90
50758;DHT22;36732;47.980;11.652;2022-09-09T15:59:23;21.60;55.80
50758;DHT22;36732;47.980;11.652;2022-09-09T16:01:50;21.60;55.80
50758;DHT22;36732;47.980;11.652;2022-09-09T16:04:19;21.60;55.80
50758;DHT22;36732;47.980;11.652;2022-09-09T16:06:56;21.50;55.80
50758;DHT22;36732;47.980;11.652;2022-09-09T16:09:27;21.50;55.60
50758;DHT22;36732;47.980;11.652;2022-09-09T16:11:58;21.50;55.80
50758;DHT22;36732;47.980;11.652;2022-09-09T16:14:24;21.50;55.90
50758;DHT22;36732;47.980;11.652;2022-09-09T16:16:51;21.50;56.00
50758;DHT22;36732;47.980;11.652;2022-09-09T16:19:16;21.50;55.90
50758;DHT22;36732;47.980;11.652;2022-09-09T16:21:48;21.50;56.60
50758;DHT22;36732;47.980;11.652;2022-09-09T16:24:17;21.50;56.00
50758;DHT22;36732;47.980;11.652;2022-09-09T16:26:46;21.50;56.10
50758;DHT22;36732;47.980;11.652;2022-09-09T16:29:14;21.50;56.10
50758;DHT22;36732;47.980;11.652;2022-09-09T16:31:41;21.50;56.10
50758;DHT22;36732;47.980;11.652;2022-09-09T16:34:08;21.60;56.30
50758;DHT22;36732;47.980;11.652;2022-09-09T16:36:35;21.60;56.30
50758;DHT22;36732;47.980;11.652;2022-09-09T16:39:06;21.60;56.20
50758;DHT22;36732;47.980;11.652;2022-09-09T16:41:35;21.60;56.20
50758;DHT22;36732;47.980;11.652;2022-09-09T16:44:04;21.60;56.10
50758;DHT22;36732;47.980;11.652;2022-09-09T16:46:32;21.70;56.00
50758;DHT22;36732;47.980;11.652;2022-09-09T16:49:01;21.70;55.90
50758;DHT22;36732;47.980;11.652;2022-09-09T16:51:36;21.70;55.70
50758;DHT22;36732;47.980;11.652;2022-09-09T16:54:13;21.70;55.40
50758;DHT22;36732;47.980;11.652;2022-09-09T16:56:42;21.80;55.50
50758;DHT22;36732;47.980;11.652;2022-09-09T16:59:11;21.80;55.30
50758;DHT22;36732;47.980;11.652;2022-09-09T17:01:40;21.80;55.10
50758;DHT22;36732;47.980;11.652;2022-09-09T17:04:14;21.80;54.70
50758;DHT22;36732;47.980;11.652;2022-09-09T17:06:46;21.80;54.90
50758;DHT22;36732;47.980;11.652;2022-09-09T17:09:17;21.90;54.60
50758;DHT22;36732;47.980;11.652;2022-09-09T17:11:43;21.80;54.50
50758;DHT22;36732;47.980;11.652;2022-09-09T17:14:14;21.90;54.30
50758;DHT22;36732;47.980;11.652;2022-09-09T17:16:41;21.90;54.20
50758;DHT22;36732;47.980;11.652;2022-09-09T17:19:07;21.90;54.40
50758;DHT22;36732;47.980;11.652;2022-09-09T17:21:34;21.90;54.20
50758;DHT22;36732;47.980;11.652;2022-09-09T17:24:01;21.80;54.10
50758;DHT22;36732;47.980;11.652;2022-09-09T17:26:29;21.80;54.20
50758;DHT22;36732;47.980;11.652;2022-09-09T17:28:57;21.80;54.20
50758;DHT22;36732;47.980;11.652;2022-09-09T17:31:24;21.80;54.30
50758;DHT22;36732;47.980;11.652;2022-09-09T17:33:51;21.80;54.30
50758;DHT22;36732;47.980;11.652;2022-09-09T17:36:24;21.80;54.30
50758;DHT22;36732;47.980;11.652;2022-09-09T17:39:00;21.80;54.30
50758;DHT22;36732;47.980;11.652;2022-09-09T17:41:28;21.80;54.20
50758;DHT22;36732;47.980;11.652;2022-09-09T17:43:56;21.80;54.30
50758;DHT22;36732;47.980;11.652;2022-09-09T17:46:25;21.70;54.20